Time;durP1;ratioP1;P1;durP2;ratioP2;P2;SDS_P1;SDS_P2;PMS_P1;PMS_P2;Temp;Humidity;BMP_temperature;BMP_pressure;BME280_temperature;BME280_humidity;BME280_pressure;Samples;Min_cycle;Max_cycle;Signal;HPM_P1;HPM_P2
2020/12/02 00:00:25;;;;;;;;;;;-0.10;99.90;;;;;;5095037;28;19987;-71
2020/12/02 00:02:56;;;;;;;;;;;-0.10;99.90;;;;;;5085644;28;19908;-69
2020/12/02 00:05:21;;;;;;;;;;;-0.20;99.90;;;;;;5094571;28;19915;-69
2020/12/02 00:07:50;;;;;;;;;;;-0.10;99.90;;;;;;5095477;28;19919;-70
2020/12/02 00:10:15;;;;;;;;;;;-0.10;99.90;;;;;;5094172;28;19950;-70
2020/12/02 00:12:41;;;;;;;;;;;-0.10;99.90;;;;;;5095058;28;19944;-68
2020/12/02 00:15:08;;;;;;;;;;;-0.10;99.90;;;;;;5095511;28;19958;-69
2020/12/02 00:17:33;;;;;;;;;;;-0.10;99.90;;;;;;5094167;28;19918;-69
2020/12/02 00:19:59;;;;;;;;;;;-0.10;99.90;;;;;;5094684;28;19995;-69
2020/12/02 00:22:25;;;;;;;;;;;-0.10;99.90;;;;;;5095034;28;19908;-70
2020/12/02 00:24:51;;;;;;;;;;;-0.10;99.90;;;;;;5093601;28;20437;-69
2020/12/02 00:27:22;;;;;;;;;;;-0.10;99.90;;;;;;5094688;28;20003;-70
2020/12/02 00:29:48;;;;;;;;;;;-0.20;99.90;;;;;;5094625;28;19908;-74
2020/12/02 00:32:40;;;;;;;;;;;-0.10;99.90;;;;;;5109521;28;19919;-69
2020/12/02 00:35:07;;;;;;;;;;;-0.10;99.90;;;;;;5051792;28;20011;-70
2020/12/02 00:37:32;;;;;;;;;;;-0.20;99.90;;;;;;5051331;28;19905;-71
2020/12/02 00:39:58;;;;;;;;;;;-0.10;99.90;;;;;;5050735;28;19919;-70
2020/12/02 00:42:24;;;;;;;;;;;-0.10;99.90;;;;;;5052147;28;19995;-71
2020/12/02 00:44:50;;;;;;;;;;;-0.10;99.90;;;;;;5051380;28;20306;-70
2020/12/02 00:47:20;;;;;;;;;;;-0.10;99.90;;;;;;5050724;28;19905;-69
2020/12/02 00:49:46;;;;;;;;;;;-0.10;99.90;;;;;;5051564;28;20003;-70
2020/12/02 00:52:11;;;;;;;;;;;-0.10;99.90;;;;;;5051400;28;20499;-69
2020/12/02 00:54:38;;;;;;;;;;;-0.10;99.90;;;;;;5034016;28;19944;-69
2020/12/02 00:57:04;;;;;;;;;;;-0.10;99.90;;;;;;5051522;28;19920;-70
2020/12/02 00:59:30;;;;;;;;;;;-0.10;99.90;;;;;;5051387;28;19917;-68
2020/12/02 01:02:05;;;;;;;;;;;-0.10;99.90;;;;;;5050320;28;19908;-69
2020/12/02 01:04:30;;;;;;;;;;;-0.10;99.90;;;;;;5051044;28;19904;-70
2020/12/02 01:06:56;;;;;;;;;;;-0.10;99.90;;;;;;5051079;28;19916;-72
2020/12/02 01:09:23;;;;;;;;;;;-0.10;99.90;;;;;;5050100;28;20285;-69
2020/12/02 01:11:51;;;;;;;;;;;-0.10;99.90;;;;;;5064192;28;20358;-69
2020/12/02 01:14:19;;;;;;;;;;;-0.10;99.90;;;;;;5093478;28;20376;-69
2020/12/02 01:16:46;;;;;;;;;;;-0.20;99.90;;;;;;5093250;28;19922;-70
2020/12/02 01:19:13;;;;;;;;;;;-0.10;99.90;;;;;;5108525;28;19908;-70
2020/12/02 01:21:45;;;;;;;;;;;-0.20;99.90;;;;;;5094334;28;20376;-68
2020/12/02 01:24:14;;;;;;;;;;;-0.20;99.90;;;;;;5092802;28;19904;-68
2020/12/02 01:26:45;;;;;;;;;;;-0.10;99.90;;;;;;5093842;28;20316;-71
2020/12/02 01:29:30;;;;;;;;;;;-0.10;99.90;;;;;;5093375;28;19998;-70
2020/12/02 01:31:56;;;;;;;;;;;-0.20;99.90;;;;;;5092393;28;19911;-69
2020/12/02 01:34:22;;;;;;;;;;;-0.20;99.90;;;;;;5093284;28;19911;-70
2020/12/02 01:36:47;;;;;;;;;;;-0.20;99.90;;;;;;5093340;28;19908;-69
2020/12/02 01:39:13;;;;;;;;;;;-0.10;99.90;;;;;;5092164;28;20033;-68
2020/12/02 01:41:40;;;;;;;;;;;-0.20;99.90;;;;;;5093441;28;19912;-67
2020/12/02 01:44:08;;;;;;;;;;;-0.20;99.90;;;;;;5093387;28;19926;-69
2020/12/02 01:46:42;;;;;;;;;;;-0.10;99.90;;;;;;5092042;28;20274;-70
2020/12/02 01:49:18;;;;;;;;;;;-0.10;99.90;;;;;;5092984;28;19995;-68
2020/12/02 01:52:02;;;;;;;;;;;-0.10;99.90;;;;;;5093074;28;20453;-69
2020/12/02 01:54:31;;;;;;;;;;;-0.10;99.90;;;;;;5092376;28;19904;-70
2020/12/02 01:57:15;;;;;;;;;;;-0.10;99.90;;;;;;5093171;28;20315;-71
2020/12/02 01:59:41;;;;;;;;;;;-0.20;99.90;;;;;;5092434;28;19912;-69
2020/12/02 02:02:09;;;;;;;;;;;-0.20;99.90;;;;;;5092338;28;20353;-71
2020/12/02 02:04:50;;;;;;;;;;;-0.20;99.90;;;;;;5093410;28;19958;-69
2020/12/02 02:07:21;;;;;;;;;;;-0.10;99.90;;;;;;5088507;28;19919;-69
2020/12/02 02:09:48;;;;;;;;;;;-0.20;99.90;;;;;;5093361;28;19908;-69
2020/12/02 02:12:25;;;;;;;;;;;-0.20;99.90;;;;;;5093126;28;19923;-68
2020/12/02 02:14:54;;;;;;;;;;;-0.10;99.90;;;;;;5091717;28;19904;-70
2020/12/02 02:17:20;;;;;;;;;;;-0.20;99.90;;;;;;5092657;28;20386;-69
2020/12/02 02:19:46;;;;;;;;;;;-0.20;99.90;;;;;;5092714;28;20002;-69
2020/12/02 02:22:11;;;;;;;;;;;-0.20;99.90;;;;;;5092048;28;20377;-70
2020/12/02 02:24:37;;;;;;;;;;;-0.20;99.90;;;;;;5092114;28;19904;-74
2020/12/02 02:27:03;;;;;;;;;;;-0.20;99.90;;;;;;5089314;28;19962;-71
2020/12/02 02:29:31;;;;;;;;;;;-0.30;99.90;;;;;;5089168;28;19910;-70
2020/12/02 02:31:56;;;;;;;;;;;-0.30;99.90;;;;;;5091884;28;20366;-70
2020/12/02 02:34:22;;;;;;;;;;;-0.30;99.90;;;;;;5093419;28;19914;-69
2020/12/02 02:36:48;;;;;;;;;;;-0.30;99.90;;;;;;5093153;28;19999;-70
2020/12/02 02:39:14;;;;;;;;;;;-0.30;99.90;;;;;;5093461;28;20010;-72
2020/12/02 02:41:40;;;;;;;;;;;-0.30;99.90;;;;;;5093512;28;19953;-72
2020/12/02 02:44:08;;;;;;;;;;;-0.30;99.90;;;;;;5092839;28;19908;-70
2020/12/02 02:46:34;;;;;;;;;;;-0.30;99.90;;;;;;5093199;28;19908;-70
2020/12/02 02:49:00;;;;;;;;;;;-0.40;99.90;;;;;;5093058;28;19911;-71
2020/12/02 02:51:25;;;;;;;;;;;-0.40;99.90;;;;;;5093658;28;19907;-69
2020/12/02 02:53:51;;;;;;;;;;;-0.40;99.90;;;;;;5075503;28;20316;-70
2020/12/02 02:56:17;;;;;;;;;;;-0.40;99.90;;;;;;5093348;28;19998;-71
2020/12/02 02:58:42;;;;;;;;;;;-0.40;99.90;;;;;;5094535;28;19908;-69
2020/12/02 03:01:08;;;;;;;;;;;-0.40;99.90;;;;;;5099762;28;19911;-70
2020/12/02 03:03:34;;;;;;;;;;;-0.40;99.90;;;;;;5076086;28;19951;-71
2020/12/02 03:06:00;;;;;;;;;;;-0.40;99.90;;;;;;5093558;28;19916;-72
2020/12/02 03:08:26;;;;;;;;;;;-0.40;99.90;;;;;;5093417;28;19910;-70
2020/12/02 03:10:53;;;;;;;;;;;-0.40;99.90;;;;;;5092503;28;19904;-71
2020/12/02 03:13:25;;;;;;;;;;;-0.40;99.90;;;;;;5092999;28;19911;-71
2020/12/02 03:15:51;;;;;;;;;;;-0.40;99.90;;;;;;5093135;28;19961;-70
2020/12/02 03:18:17;;;;;;;;;;;-0.40;99.90;;;;;;5092909;28;19943;-70
2020/12/02 03:20:46;;;;;;;;;;;-0.30;99.90;;;;;;5093343;28;19939;-70
2020/12/02 03:23:13;;;;;;;;;;;-0.30;99.90;;;;;;5093960;28;20323;-69
2020/12/02 03:25:39;;;;;;;;;;;-0.40;99.90;;;;;;5093507;28;19956;-70
2020/12/02 03:28:05;;;;;;;;;;;-0.30;99.90;;;;;;5095210;28;19911;-74
2020/12/02 03:30:31;;;;;;;;;;;-0.40;99.90;;;;;;5096646;28;19904;-72
2020/12/02 03:32:57;;;;;;;;;;;-0.40;99.90;;;;;;5096035;28;19927;-73
2020/12/02 03:35:22;;;;;;;;;;;-0.40;99.90;;;;;;5096531;28;20358;-69
2020/12/02 03:37:48;;;;;;;;;;;-0.40;99.90;;;;;;5096728;28;19908;-70
2020/12/02 03:40:14;;;;;;;;;;;-0.40;99.90;;;;;;5096691;28;20310;-71
2020/12/02 03:42:40;;;;;;;;;;;-0.30;99.90;;;;;;5096360;28;19904;-71
2020/12/02 03:45:06;;;;;;;;;;;-0.40;99.90;;;;;;5096118;28;19942;-70
2020/12/02 03:47:32;;;;;;;;;;;-0.40;99.90;;;;;;5096616;28;19965;-71
2020/12/02 03:49:57;;;;;;;;;;;-0.40;99.90;;;;;;5096328;28;19908;-74
2020/12/02 03:52:23;;;;;;;;;;;-0.50;99.90;;;;;;5096067;28;19995;-70
2020/12/02 03:54:49;;;;;;;;;;;-0.50;99.90;;;;;;5096692;28;19905;-70
2020/12/02 03:57:14;;;;;;;;;;;-0.50;99.90;;;;;;5096440;28;20411;-71
2020/12/02 03:59:40;;;;;;;;;;;-0.40;99.90;;;;;;5096029;28;19908;-71
2020/12/02 04:02:05;;;;;;;;;;;-0.40;99.90;;;;;;5095829;28;19908;-70
2020/12/02 04:04:31;;;;;;;;;;;-0.40;99.90;;;;;;5095928;28;20553;-70
2020/12/02 04:06:56;;;;;;;;;;;-0.40;99.90;;;;;;5095332;28;20011;-70
2020/12/02 04:09:22;;;;;;;;;;;-0.40;99.90;;;;;;5095672;28;19913;-71
2020/12/02 04:11:48;;;;;;;;;;;-0.40;99.90;;;;;;5096061;28;19904;-68
2020/12/02 04:14:13;;;;;;;;;;;-0.40;99.90;;;;;;5095289;28;20524;-70
2020/12/02 04:16:39;;;;;;;;;;;-0.40;99.90;;;;;;5095721;28;19904;-70
2020/12/02 04:19:04;;;;;;;;;;;-0.50;99.90;;;;;;5095455;28;19912;-70
2020/12/02 04:21:30;;;;;;;;;;;-0.50;99.90;;;;;;5095588;28;19993;-72
2020/12/02 04:23:56;;;;;;;;;;;-0.60;99.90;;;;;;5095767;28;19908;-72
2020/12/02 04:26:22;;;;;;;;;;;-0.60;99.90;;;;;;5095359;28;19904;-71
2020/12/02 04:28:48;;;;;;;;;;;-0.60;99.90;;;;;;5095249;28;19950;-72
2020/12/02 04:31:14;;;;;;;;;;;-0.60;99.90;;;;;;5077369;28;19908;-71
2020/12/02 04:33:39;;;;;;;;;;;-0.70;99.90;;;;;;5097489;28;19904;-69
2020/12/02 04:36:06;;;;;;;;;;;-0.70;99.90;;;;;;5097307;28;20350;-71
2020/12/02 04:38:31;;;;;;;;;;;-0.60;99.90;;;;;;5094967;28;20003;-71
2020/12/02 04:40:57;;;;;;;;;;;-0.70;99.90;;;;;;5095293;28;19953;-70
2020/12/02 04:43:33;;;;;;;;;;;-0.60;99.90;;;;;;5095002;28;19904;-71
2020/12/02 04:46:00;;;;;;;;;;;-0.70;99.90;;;;;;5095497;28;20257;-71
2020/12/02 04:48:29;;;;;;;;;;;-0.70;99.90;;;;;;5094566;28;19904;-71
2020/12/02 04:51:00;;;;;;;;;;;-0.60;99.90;;;;;;5094973;28;19916;-68
2020/12/02 04:53:25;;;;;;;;;;;-0.70;99.90;;;;;;5095206;28;19954;-71
2020/12/02 04:55:52;;;;;;;;;;;-0.70;99.90;;;;;;5095084;28;19908;-70
2020/12/02 04:58:32;;;;;;;;;;;-0.70;99.90;;;;;;5095094;28;19915;-70
2020/12/02 05:01:13;;;;;;;;;;;-0.60;99.90;;;;;;5095136;28;19908;-71
2020/12/02 05:03:54;;;;;;;;;;;-0.60;99.90;;;;;;5110219;28;20320;-71
2020/12/02 05:06:20;;;;;;;;;;;0.20;99.90;;;;;;5094889;28;19916;-72
2020/12/02 05:08:46;;;;;;;;;;;-0.50;99.90;;;;;;5094915;28;19946;-71
2020/12/02 05:11:12;;;;;;;;;;;-0.40;99.90;;;;;;5094635;28;19904;-70
2020/12/02 05:13:38;;;;;;;;;;;-0.50;99.90;;;;;;5094982;28;19947;-71
2020/12/02 05:16:05;;;;;;;;;;;-0.40;99.90;;;;;;5094086;28;20385;-74
2020/12/02 05:18:30;;;;;;;;;;;-0.40;99.90;;;;;;5094350;28;19962;-72
2020/12/02 05:21:05;;;;;;;;;;;-0.30;99.90;;;;;;5094228;28;19916;-71
2020/12/02 05:23:31;;;;;;;;;;;-0.30;99.90;;;;;;5094095;28;19904;-71
2020/12/02 05:25:57;;;;;;;;;;;-0.30;99.90;;;;;;5094177;28;19908;-73
2020/12/02 05:28:30;;;;;;;;;;;-0.40;99.90;;;;;;5110307;28;19910;-75
2020/12/02 05:31:01;;;;;;;;;;;-0.40;99.90;;;;;;5094351;28;19935;-70
2020/12/02 05:33:29;;;;;;;;;;;-0.40;99.90;;;;;;5094817;28;19994;-71
2020/12/02 05:35:58;;;;;;;;;;;-0.40;99.90;;;;;;5094196;28;19904;-70
2020/12/02 05:38:30;;;;;;;;;;;-0.40;99.90;;;;;;5093858;28;19912;-70
2020/12/02 05:40:57;;;;;;;;;;;-0.40;99.90;;;;;;5094072;28;19907;-71
2020/12/02 05:43:25;;;;;;;;;;;-0.40;99.90;;;;;;5093952;28;19915;-71
2020/12/02 05:45:51;;;;;;;;;;;-0.40;99.90;;;;;;5094011;28;19942;-72
2020/12/02 05:48:38;;;;;;;;;;;-0.40;99.90;;;;;;5076859;28;20308;-73
2020/12/02 05:51:04;;;;;;;;;;;-0.50;99.90;;;;;;5068933;28;19916;-71
2020/12/02 05:53:34;;;;;;;;;;;-0.40;99.90;;;;;;5094772;28;19911;-71
2020/12/02 05:56:01;;;;;;;;;;;-0.50;99.90;;;;;;5094874;28;19950;-73
2020/12/02 05:58:31;;;;;;;;;;;-0.50;99.90;;;;;;5092874;28;20014;-71
2020/12/02 06:00:57;;;;;;;;;;;-0.50;99.90;;;;;;5093597;28;19951;-69
2020/12/02 06:03:34;;;;;;;;;;;-0.50;99.90;;;;;;5093639;28;19911;-70
2020/12/02 06:06:00;;;;;;;;;;;-0.60;99.90;;;;;;5074474;28;19963;-71
2020/12/02 06:08:32;;;;;;;;;;;-0.60;99.90;;;;;;5093428;28;19919;-70
2020/12/02 06:11:18;;;;;;;;;;;-0.60;99.90;;;;;;5093083;28;19948;-71
2020/12/02 06:13:54;;;;;;;;;;;-0.50;99.90;;;;;;5093566;28;20376;-70
2020/12/02 06:16:26;;;;;;;;;;;-0.50;99.90;;;;;;5091980;28;19904;-71
2020/12/02 06:18:52;;;;;;;;;;;-0.50;99.90;;;;;;5092861;28;20364;-71
2020/12/02 06:21:20;;;;;;;;;;;-0.40;99.90;;;;;;5093201;28;20437;-71
2020/12/02 06:23:50;;;;;;;;;;;-0.30;99.90;;;;;;5093847;28;19949;-70
2020/12/02 06:26:32;;;;;;;;;;;-0.30;99.90;;;;;;5093532;28;19910;-72
2020/12/02 06:28:58;;;;;;;;;;;-0.20;99.90;;;;;;5093451;28;19904;-70
2020/12/02 06:31:25;;;;;;;;;;;-0.10;99.90;;;;;;5093209;28;19908;-71
2020/12/02 06:33:51;;;;;;;;;;;-0.10;99.90;;;;;;5093146;28;19943;-70
2020/12/02 06:36:17;;;;;;;;;;;-0.10;99.90;;;;;;5093022;28;20293;-71
2020/12/02 06:38:46;;;;;;;;;;;-0.10;99.90;;;;;;5093333;28;19922;-74
2020/12/02 06:41:17;;;;;;;;;;;0.00;99.90;;;;;;5075012;28;19927;-70
2020/12/02 06:43:54;;;;;;;;;;;0.00;99.90;;;;;;5109339;28;19911;-72
2020/12/02 06:46:37;;;;;;;;;;;0.00;99.90;;;;;;5093429;28;19911;-72
2020/12/02 06:49:02;;;;;;;;;;;0.10;99.90;;;;;;5093346;28;20404;-70
2020/12/02 06:51:29;;;;;;;;;;;0.00;99.90;;;;;;5093045;28;19908;-71
2020/12/02 06:53:55;;;;;;;;;;;0.10;99.90;;;;;;5093062;28;19911;-70
2020/12/02 06:56:21;;;;;;;;;;;-0.30;99.90;;;;;;5109886;28;19904;-70
2020/12/02 06:59:06;;;;;;;;;;;0.10;99.90;;;;;;5095546;28;19919;-73
2020/12/02 07:01:33;;;;;;;;;;;0.10;99.90;;;;;;5090976;28;20302;-70
2020/12/02 07:03:59;;;;;;;;;;;0.10;99.90;;;;;;5067642;28;20325;-71
2020/12/02 07:06:29;;;;;;;;;;;0.20;99.90;;;;;;5069231;28;19920;-71
2020/12/02 07:09:13;;;;;;;;;;;0.20;99.90;;;;;;5076634;28;19912;-71
2020/12/02 07:11:47;;;;;;;;;;;0.20;99.90;;;;;;5076986;28;19962;-69
2020/12/02 07:14:23;;;;;;;;;;;0.00;99.90;;;;;;5076888;28;20007;-73
2020/12/02 07:16:50;;;;;;;;;;;;;;;;;;5076568;28;19908;-72
2020/12/02 07:19:19;;;;;;;;;;;;;;;;;;5076544;28;19935;-76
2020/12/02 07:21:45;;;;;;;;;;;;;;;;;;5076810;28;19904;-70
2020/12/02 07:24:11;;;;;;;;;;;;;;;;;;5075999;28;20374;-69
2020/12/02 07:26:37;;;;;;;;;;;;;;;;;;5076702;28;19911;-70
2020/12/02 07:29:03;;;;;;;;;;;;;;;;;;5076698;28;19904;-71
2020/12/02 07:31:30;;;;;;;59.28;31.73;;;;;;;;;;5075953;28;20391;-72
2020/12/02 07:34:05;;;;;;;57.58;26.52;;;;;;;;;;5074907;28;20410;-70
2020/12/02 07:36:33;;;;;;;61.88;28.42;;;;;;;;;;5075649;28;20096;-73
2020/12/02 07:39:02;;;;;;;50.30;28.20;;;;;;;;;;5073106;28;20032;-73
2020/12/02 07:41:28;;;;;;;57.40;30.50;;;;;;;;;;5066138;28;20047;-70
2020/12/02 07:43:54;;;;;;;53.95;28.50;;;;;;;;;;5075481;28;20048;-72
2020/12/02 07:46:21;;;;;;;121.37;41.17;;;;;;;;;;5075398;28;20137;-74
2020/12/02 07:48:49;;;;;;;116.53;41.20;;;;;;;;;;5074584;28;20035;-73
2020/12/02 07:51:19;;;;;;;120.28;41.58;;;;;;;;;;5075064;28;20027;-71
2020/12/02 07:53:54;;;;;;;120.93;41.47;;;;;;;;;;5075799;28;20012;-73
2020/12/02 07:56:26;;;;;;;119.93;41.20;;;;;;;;;;5072410;28;20051;-71
2020/12/02 07:58:54;;;;;;;110.10;39.53;;;;;;;;;;5071800;28;20444;-70
2020/12/02 08:01:29;;;;;;;110.80;38.92;;;;;;;;;;5070316;28;20013;-71
2020/12/02 08:03:55;;;;;;;113.85;39.58;;;;;;;;;;5067629;28;20029;-72
2020/12/02 08:06:39;;;;;;;111.32;39.33;;;;;;;;;;5076276;28;20047;-74
2020/12/02 08:09:07;;;;;;;113.30;39.67;;;1.10;99.90;;;;;;5068999;28;20422;-71
2020/12/02 08:11:33;;;;;;;113.50;39.83;;;1.20;99.90;;;;;;5104009;28;20032;-73
2020/12/02 08:13:59;;;;;;;111.15;39.42;;;1.20;99.90;;;;;;5094322;28;20098;-72
2020/12/02 08:16:38;;;;;;;108.53;39.03;;;1.30;99.90;;;;;;5095088;28;20028;-75
2020/12/02 08:19:05;;;;;;;109.40;39.30;;;1.40;99.90;;;;;;5093703;28;20474;-75
2020/12/02 08:21:32;;;;;;;82.80;35.60;;;1.40;99.90;;;;;;5095091;28;20439;-71
2020/12/02 08:24:16;;;;;;;72.40;34.25;;;1.40;99.90;;;;;;5095846;28;20032;-71
2020/12/02 08:26:42;;;;;;;60.90;31.92;;;1.50;99.90;;;;;;5091011;28;20028;-71
2020/12/02 08:29:10;;;;;;;57.63;30.25;;;1.50;99.90;;;;;;5093096;28;20459;-72
2020/12/02 08:31:37;;;;;;;55.70;29.40;;;1.60;99.90;;;;;;5092265;28;20081;-70
2020/12/02 08:34:12;;;;;;;;;;;1.60;99.90;;;;;;5090800;28;20024;-71
2020/12/02 08:36:40;;;;;;;62.13;31.08;;;1.60;99.90;;;;;;5093803;28;20398;-70
2020/12/02 08:39:06;;;;;;;;;;;1.70;99.90;;;;;;5095921;28;20047;-72
2020/12/02 08:41:58;;;;;;;;;;;1.80;99.90;;;;;;5096198;28;20374;-71
2020/12/02 08:44:23;;;;;;;;;;;1.80;99.90;;;;;;5090790;28;19904;-71
2020/12/02 08:46:49;;;;;;;;;;;2.00;99.90;;;;;;5066517;28;20365;-72
2020/12/02 08:49:15;;;;;;;;;;;2.20;99.90;;;;;;5091314;28;20413;-71
2020/12/02 08:51:42;;;;;;;;;;;2.40;99.90;;;;;;5091384;28;19908;-71
2020/12/02 08:54:10;;;;;;;;;;;2.60;99.90;;;;;;5098191;28;19904;-74
2020/12/02 08:56:36;;;;;;;;;;;2.80;99.90;;;;;;5092226;28;20003;-71
2020/12/02 08:59:04;;;;;;;;;;;2.80;99.90;;;;;;5090949;28;20015;-73
2020/12/02 09:01:30;;;;;;;;;;;2.90;99.90;;;;;;5082566;28;20286;-72
2020/12/02 09:03:55;;;;;;;;;;;2.90;99.90;;;;;;5095335;28;19911;-73
2020/12/02 09:06:21;;;;;;;;;;;3.10;99.90;;;;;;5094721;28;19938;-70
2020/12/02 09:08:47;;;;;;;;;;;3.00;99.90;;;;;;5094470;28;20269;-73
2020/12/02 09:11:16;;;;;;;;;;;3.10;99.90;;;;;;5094009;28;19904;-73
2020/12/02 09:13:41;;;;;;;;;;;3.00;99.90;;;;;;5090505;28;19953;-75
2020/12/02 09:16:07;;;;;;;;;;;3.20;99.90;;;;;;5093315;28;20238;-77
2020/12/02 09:18:33;;;;;;;;;;;3.30;99.90;;;;;;5076604;28;19930;-71
2020/12/02 09:20:59;;;;;;;;;;;;;;;;;;5093920;28;19912;-71
2020/12/02 09:23:24;;;;;;;;;;;3.30;99.90;;;;;;5094792;28;19908;-72
2020/12/02 09:25:50;;;;;;;;;;;3.50;99.90;;;;;;5094172;28;19910;-72
2020/12/02 09:28:15;;;;;;;;;;;3.70;99.90;;;;;;5089138;28;19943;-71
2020/12/02 09:30:41;;;;;;;;;;;3.80;99.90;;;;;;5088195;28;19957;-74
2020/12/02 09:33:07;;;;;;;;;;;3.70;99.90;;;;;;5094397;28;19911;-71
2020/12/02 09:35:32;;;;;;;;;;;3.70;99.90;;;;;;5094255;28;19926;-76
2020/12/02 09:37:58;;;;;;;;;;;3.60;99.90;;;;;;5100736;28;19908;-73
2020/12/02 09:40:23;;;;;;;;;;;3.70;99.90;;;;;;5094006;28;20396;-75
2020/12/02 09:43:08;;;;;;;;;;;3.60;99.90;;;;;;5092969;28;20045;-72
2020/12/02 09:45:34;;;;;;;;;;;3.80;99.90;;;;;;5094077;28;19947;-70
2020/12/02 09:48:03;;;;;;;;;;;3.80;99.90;;;;;;5071377;28;20340;-77
2020/12/02 09:50:29;;;;;;;;;;;3.80;99.90;;;;;;5093996;28;20410;-71
2020/12/02 09:52:55;;;;;;;;;;;3.90;99.90;;;;;;5075896;28;19996;-71
2020/12/02 09:55:24;;;;;;;;;;;4.10;99.90;;;;;;5094576;28;20342;-69
2020/12/02 09:57:50;;;;;;;;;;;4.20;99.90;;;;;;5093302;28;19907;-73
2020/12/02 10:00:16;;;;;;;;;;;4.30;99.90;;;;;;5090989;28;20007;-71
2020/12/02 10:03:04;;;;;;;;;;;4.40;99.90;;;;;;5089491;28;19915;-70
2020/12/02 10:05:36;;;;;;;;;;;4.40;99.90;;;;;;5086581;28;19951;-70
2020/12/02 10:08:01;;;;;;;;;;;4.60;99.90;;;;;;5093158;28;19956;-72
2020/12/02 10:10:38;;;;;;;;;;;4.60;99.90;;;;;;5097614;28;20329;-70
2020/12/02 10:13:16;;;;;;;;;;;4.60;99.90;;;;;;5087021;28;20245;-71
2020/12/02 10:15:44;;;;;;;;;;;4.40;99.90;;;;;;5089755;28;19903;-73
2020/12/02 10:18:24;;;;;;;;;;;4.40;99.90;;;;;;5088478;28;19913;-71
2020/12/02 10:20:56;;;;;;;;;;;4.50;99.90;;;;;;5089680;28;19919;-73
2020/12/02 10:23:57;;;;;;;42.47;19.23;;;4.50;99.90;;;;;;5092381;28;20863;-71
2020/12/02 10:26:31;;;;;;;26.20;12.60;;;4.60;99.90;;;;;;5092930;28;20020;-78
2020/12/02 10:29:08;;;;;;;25.85;11.45;;;4.60;99.90;;;;;;5093203;28;20477;-72
2020/12/02 10:32:11;;;;;;;22.10;11.27;;;4.80;99.90;;;;;;5089691;28;20099;-71
2020/12/02 10:34:42;;;;;;;20.27;9.32;;;5.00;99.90;;;;;;5066417;28;20035;-72
2020/12/02 10:37:17;;;;;;;326.75;176.70;;;4.70;99.90;;;;;;5076780;28;20031;-70
2020/12/02 10:39:43;;;;;;;22.33;11.48;;;4.50;99.90;;;;;;5096427;28;20111;-70
2020/12/02 10:42:29;;;;;;;21.45;10.45;;;4.30;99.90;;;;;;5097003;28;20111;-71
2020/12/02 10:45:04;;;;;;;23.67;12.57;;;4.20;99.90;;;;;;5095943;28;20038;-71
2020/12/02 10:47:49;;;;;;;90.43;44.33;;;4.20;99.90;;;;;;5097041;28;20080;-70
2020/12/02 10:50:16;;;;;;;343.92;134.35;;;4.30;99.90;;;;;;5094331;28;20042;-71
2020/12/02 10:52:46;;;;;;;76.97;30.38;;;4.30;99.90;;;;;;5096629;28;20021;-71
2020/12/02 10:55:16;;;;;;;22.73;12.57;;;4.30;99.90;;;;;;5105827;28;20160;-71
2020/12/02 10:57:42;;;;;;;19.05;11.02;;;4.10;99.90;;;;;;5096930;28;20378;-70
2020/12/02 11:00:14;;;;;;;28.77;13.82;;;4.10;99.90;;;;;;5105484;28;20032;-73
2020/12/02 11:02:40;;;;;;;369.30;131.18;;;4.00;99.90;;;;;;5096981;28;20081;-71
2020/12/02 11:05:07;;;;;;;46.47;18.80;;;4.20;99.90;;;;;;5109225;28;20024;-70
2020/12/02 11:07:35;;;;;;;230.57;97.97;;;4.10;99.90;;;;;;5095848;28;20439;-71
2020/12/02 11:10:09;;;;;;;348.15;118.22;;;4.00;99.90;;;;;;5096867;28;20032;-72
2020/12/02 11:12:50;;;;;;;340.73;206.40;;;4.00;99.90;;;;;;5096433;28;20052;-70
2020/12/02 11:15:22;;;;;;;133.27;78.57;;;4.00;99.90;;;;;;5096787;28;20028;-72
2020/12/02 11:17:54;;;;;;;26.67;9.10;;;4.10;99.90;;;;;;5096176;28;20107;-69
2020/12/02 11:20:33;;;;;;;137.35;69.60;;;4.20;99.90;;;;;;5096449;28;20032;-73
2020/12/02 11:23:04;;;;;;;8.93;4.90;;;4.30;99.90;;;;;;5098030;28;20373;-70
2020/12/02 11:25:35;;;;;;;106.10;78.25;;;4.40;99.90;;;;;;5078672;28;20032;-71
2020/12/02 11:28:02;;;;;;;23.45;13.38;;;4.30;99.90;;;;;;5096475;28;20104;-72
2020/12/02 11:30:32;;;;;;;26.80;13.18;;;4.40;99.90;;;;;;5096536;28;20032;-69
2020/12/02 11:33:28;;;;;;;24.20;12.75;;;4.40;99.90;;;;;;5096003;28;20020;-72
2020/12/02 11:36:15;;;;;;;26.50;14.73;;;4.30;99.90;;;;;;5078092;28;20108;-70
2020/12/02 11:39:11;;;;;;;278.98;96.03;;;4.40;99.90;;;;;;5096349;28;20103;-71
2020/12/02 11:42:01;;;;;;;305.83;175.63;;;4.50;99.90;;;;;;5096372;28;20027;-74
2020/12/02 11:44:46;;;;;;;353.80;140.68;;;4.40;99.90;;;;;;5096787;28;20031;-74
2020/12/02 11:47:29;;;;;;;393.65;178.80;;;4.40;99.90;;;;;;5095717;28;20458;-74
2020/12/02 11:50:11;;;;;;;372.48;199.35;;;4.30;99.90;;;;;;5095654;28;20520;-70
2020/12/02 11:52:48;;;;;;;299.23;125.20;;;4.40;99.90;;;;;;5095723;28;20420;-72
2020/12/02 11:55:18;;;;;;;357.77;140.18;;;4.50;99.90;;;;;;5077207;28;20024;-70
2020/12/02 11:57:51;;;;;;;34.00;19.17;;;4.50;99.90;;;;;;5096115;28;20029;-71
2020/12/02 12:00:17;;;;;;;17.05;10.15;;;4.50;99.90;;;;;;5077465;28;20039;-72
2020/12/02 12:03:36;;;;;;;21.90;11.57;;;4.50;99.90;;;;;;5095378;28;20522;-73
2020/12/02 12:06:10;;;;;;;23.95;13.23;;;4.60;99.90;;;;;;5046714;28;20073;-71
2020/12/02 12:08:47;;;;;;;870.38;281.73;;;4.60;99.90;;;;;;5029519;28;20041;-72
2020/12/02 12:11:26;;;;;;;577.10;160.63;;;4.60;99.90;;;;;;5035761;28;20094;-72
2020/12/02 12:14:03;;;;;;;119.63;36.03;;;4.70;99.90;;;;;;5052778;28;20067;-71
2020/12/02 12:16:51;;;;;;;27.65;13.90;;;4.70;99.90;;;;;;5044403;28;20042;-72
2020/12/02 12:19:26;;;;;;;22.00;11.02;;;4.70;99.90;;;;;;5049743;28;20025;-73
2020/12/02 12:22:23;;;;;;;40.55;18.17;;;4.50;99.90;;;;;;5052886;28;20068;-73
2020/12/02 12:24:49;;;;;;;26.00;12.88;;;4.50;99.90;;;;;;5052474;28;20083;-73
2020/12/02 12:27:19;;;;;;;58.22;18.33;;;4.30;99.90;;;;;;5052683;28;20044;-73
2020/12/02 12:29:45;;;;;;;47.17;20.13;;;4.30;99.90;;;;;;5052520;28;20056;-74
2020/12/02 12:32:17;;;;;;;38.67;16.27;;;4.40;99.90;;;;;;5052548;28;20033;-72
2020/12/02 12:34:58;;;;;;;70.68;23.70;;;4.40;99.90;;;;;;5038867;28;20067;-73
2020/12/02 12:37:41;;;;;;;34.65;15.82;;;4.30;99.90;;;;;;5036029;28;20025;-73
2020/12/02 12:40:30;;;;;;;61.63;23.40;;;4.20;99.90;;;;;;5053332;28;20029;-72
2020/12/02 12:42:57;;;;;;;24.27;13.40;;;4.20;99.90;;;;;;5090436;28;20389;-71
2020/12/02 12:45:53;;;;;;;29.20;15.15;;;4.10;99.90;;;;;;5094697;28;20028;-72
2020/12/02 12:48:22;;;;;;;25.13;13.80;;;4.10;99.90;;;;;;5094109;28;20397;-71
2020/12/02 12:50:50;;;;;;;30.92;16.48;;;4.10;99.90;;;;;;5076696;28;20370;-72
2020/12/02 12:53:18;;;;;;;27.10;13.82;;;4.10;99.90;;;;;;5094653;28;20012;-72
2020/12/02 12:55:44;;;;;;;21.10;12.07;;;4.20;99.90;;;;;;5094789;28;20059;-71
2020/12/02 12:58:18;;;;;;;28.02;15.02;;;4.10;99.90;;;;;;5094151;28;20374;-72
2020/12/02 13:00:49;;;;;;;42.63;16.85;;;4.00;99.90;;;;;;5094167;28;20028;-70
2020/12/02 13:03:21;;;;;;;34.05;17.73;;;4.10;99.90;;;;;;5094367;28;20037;-72
2020/12/02 13:06:07;;;;;;;28.00;15.70;;;4.20;99.90;;;;;;5093947;28;20420;-72
2020/12/02 13:08:40;;;;;;;24.88;13.02;;;4.30;99.90;;;;;;5094348;28;20036;-72
2020/12/02 13:11:34;;;;;;;29.90;15.98;;;4.20;99.90;;;;;;5094330;28;20351;-72
2020/12/02 13:14:09;;;;;;;25.73;14.43;;;4.20;99.90;;;;;;5093279;28;20382;-70
2020/12/02 13:16:51;;;;;;;31.40;17.13;;;4.30;99.90;;;;;;5088751;28;20106;-73
2020/12/02 13:19:18;;;;;;;33.15;16.33;;;4.30;99.90;;;;;;5081406;28;20028;-70
2020/12/02 13:21:55;;;;;;;32.03;15.68;;;4.30;99.90;;;;;;5083416;28;20028;-69
2020/12/02 13:24:58;;;;;;;30.60;17.17;;;4.30;99.90;;;;;;5094556;28;20043;-72
2020/12/02 13:27:39;;;;;;;33.35;17.35;;;4.30;99.90;;;;;;5087879;28;20050;-71
2020/12/02 13:30:14;;;;;;;27.08;15.65;;;4.30;99.90;;;;;;5094081;28;20035;-72
2020/12/02 13:33:03;;;;;;;29.55;17.13;;;4.20;99.90;;;;;;5094020;28;20024;-71
2020/12/02 13:35:28;;;;;;;29.42;16.77;;;4.20;99.90;;;;;;5085633;28;20109;-72
2020/12/02 13:38:06;;;;;;;38.53;16.50;;;4.00;99.90;;;;;;5094638;28;20482;-73
2020/12/02 13:40:32;;;;;;;35.17;18.77;;;3.80;99.90;;;;;;5084204;28;20035;-70
2020/12/02 13:42:58;;;;;;;36.88;18.55;;;3.80;99.90;;;;;;5091707;28;20036;-74
2020/12/02 13:45:30;;;;;;;33.63;19.73;;;3.70;99.90;;;;;;5092138;28;20073;-71
2020/12/02 13:48:04;;;;;;;46.55;23.88;;;3.70;99.90;;;;;;5085081;28;20104;-71
2020/12/02 13:50:31;;;;;;;34.72;19.27;;;3.60;99.90;;;;;;5084556;28;20110;-71
2020/12/02 13:53:07;;;;;;;33.40;18.02;;;3.60;99.90;;;;;;5092229;28;20373;-71
2020/12/02 13:56:07;;;;;;;33.33;17.90;;;3.60;99.90;;;;;;5087536;28;20458;-71
2020/12/02 13:58:51;;;;;;;38.20;19.15;;;3.60;99.90;;;;;;5068248;28;20167;-71
2020/12/02 14:01:33;;;;;;;39.22;20.90;;;3.60;99.90;;;;;;5092089;28;20023;-72
2020/12/02 14:04:14;;;;;;;32.20;17.40;;;3.50;99.90;;;;;;5087572;28;20028;-72
2020/12/02 14:07:00;;;;;;;28.08;16.17;;;3.50;99.90;;;;;;5090057;28;20207;-69
2020/12/02 14:09:38;;;;;;;37.85;17.17;;;3.40;99.90;;;;;;5095869;28;20480;-70